Pagrindinis puslapis
METAR-TAF:

METAR-TAF

Oro uostai :

Joensū, Suomija

platuma: 62-40N, ilguma: 029-38E, Aukštis: 119 m

Dabartinis oras

Ataskaita buvo paskelbta 29 minutes, ne 10:20 UTC
Vėjas 6 kt iš Pietų/Pietryčių
Temperatūra -5°C
Drėgmė 93%
Slėgis 1009 hPa
Matomumas 10 km arba daugiau
Mažai debesys ne aukštis 700 ft
Apsiniaukę ne aukštis 1400 ft

METAR: EFJO 071020Z AUTO 15006KT 9999 FEW007 OVC014 M05/M06 Q1009

Laikas: 12:49 (10:49 UTC)

Prognozė

Ataskaita buvo paskelbta 2 valandos ir 23 minutes, ne 08:26 UTC
Prognozė galioja nuo 07 metu 09 UTC su 07 metu 18 UTC
Vėjas 7 kt iš Pietų/Pietryčių
Matomumas 10 km arba daugiau
Su prošvaistėmis ne aukštis 500 ft
sniegas
Laikinai
nuo 07 metu 09 UTC su 07 metu 12 UTC
Matomumas: 7000 m
Su prošvaistėmis ne aukštis 400 ft
Laikinai
nuo 07 metu 12 UTC su 07 metu 15 UTC
Matomumas: 4000 m

TAF: EFJO 070826Z 0709/0718 16007KT 9999 -SN BKN005 TEMPO 0709/0712 7000 BKN004 TEMPO 0712/0715 4000

Orai ataskaitas ir orų prognozės (METAR, TAF).

turimą stotys yra geltonos ir raudonos taškus žemėlapyje.

Perkelti pele per norėdami pamatyti stoties vardą.

Tada spustelėkite, norėdami matyti oro stebėjimo ir prognozės.

Norėdami pakeisti žemėlapį: spustelėkite ant žalios mygtukų su juodo kryžiaus žemyn,; žalią mygtuką su brūkšneliu, jei norite nutolinti; arba žalių rodyklių gretimoms žemėlapius.


METAR-TAF: